Time;durP1;ratioP1;P1;durP2;ratioP2;P2;SDS_P1;SDS_P2;PMS_P1;PMS_P2;Temp;Humidity;BMP_temperature;BMP_pressure;BME280_temperature;BME280_humidity;BME280_pressure;Samples;Min_cycle;Max_cycle;Signal;HPM_P1;HPM_P2
2021/12/20 00:09:15;;;;;;;43.22;17.17;;;;;;;2.97;98.79;101420.06;20867674;28;20075;-85
2021/12/20 00:19:17;;;;;;;44.53;17.58;;;;;;;3.00;99.12;101414.97;20908774;28;20049;-85
2021/12/20 00:29:19;;;;;;;41.63;16.83;;;;;;;3.02;98.90;101406.47;20903101;28;20049;-85
2021/12/20 00:49:40;;;;;;;37.40;16.02;;;;;;;2.96;98.89;101401.06;20925686;28;20071;-85
2021/12/20 00:59:44;;;;;;;38.30;16.90;;;;;;;2.95;99.02;101386.38;20928510;28;20191;-85
2021/12/20 01:09:49;;;;;;;41.72;16.73;;;;;;;2.86;100.00;101359.34;20893749;28;20045;-85
2021/12/20 01:19:50;;;;;;;;;;;;;;;2.92;99.94;101375.06;20909709;28;20136;-84
2021/12/20 01:29:52;;;;;;;42.03;16.40;;;;;;;3.01;99.27;101377.94;20875474;28;19921;-86
2021/12/20 01:39:58;;;;;;;41.72;16.92;;;;;;;2.94;99.57;101373.41;20889569;28;20418;-85
2021/12/20 02:00:07;;;;;;;40.92;17.63;;;;;;;3.03;99.08;101360.75;20895753;28;20045;-86
2021/12/20 02:10:08;;;;;;;43.03;17.70;;;;;;;3.03;98.81;101360.75;20889038;28;20053;-84
2021/12/20 02:20:23;;;;;;;38.13;16.10;;;;;;;3.01;99.58;101342.59;20897229;28;20044;-85
2021/12/20 02:36:50;;;;;;;;;;;;;;;2.99;99.57;101351.16;20890937;28;20132;-84
2021/12/20 02:41:03;;;;;;;36.40;15.77;;;;;;;3.02;99.42;101351.25;20875541;28;19947;-85
2021/12/20 02:51:05;;;;;;;39.25;17.95;;;;;;;3.06;98.96;101337.56;20901128;28;20049;-86
2021/12/20 03:01:06;;;;;;;38.42;16.55;;;;;;;3.08;99.32;101351.44;20878057;28;20053;-85
2021/12/20 03:11:08;;;;;;;38.05;16.25;;;;;;;3.07;99.33;101332.44;20881772;28;20102;-85
2021/12/20 03:21:09;;;;;;;35.67;15.13;;;;;;;3.04;99.07;101334.06;20878756;28;20055;-85
2021/12/20 03:31:12;;;;;;;37.17;16.67;;;;;;;3.02;99.38;101327.97;20907521;28;20041;-85
2021/12/20 03:41:14;;;;;;;39.80;16.98;;;;;;;2.95;99.47;101324.31;20888414;28;20079;-84
2021/12/20 03:51:16;;;;;;;40.05;17.65;;;;;;;2.98;99.73;101319.22;20897400;28;20052;-84
2021/12/20 04:01:17;;;;;;;47.25;19.23;;;;;;;3.01;99.82;101334.81;20911657;28;20049;-85
2021/12/20 04:11:19;;;;;;;50.30;19.23;;;;;;;2.98;99.83;101336.47;20886992;28;20057;-84
2021/12/20 04:21:22;;;;;;;52.90;19.85;;;;;;;2.97;99.89;101326.94;20856839;28;20052;-85
2021/12/20 04:31:24;;;;;;;51.20;19.92;;;;;;;3.01;99.89;101328.78;20851343;28;20041;-85
2021/12/20 04:41:25;;;;;;;50.67;19.40;;;;;;;2.97;99.91;101324.34;20883077;28;20053;-85
2021/12/20 04:51:27;;;;;;;52.15;20.42;;;;;;;3.03;99.96;101332.31;20934371;28;20045;-85
2021/12/20 05:01:28;;;;;;;49.05;20.00;;;;;;;3.03;100.00;101340.06;20932046;28;20073;-85
2021/12/20 05:11:33;;;;;;;61.50;21.48;;;;;;;3.05;100.00;101334.09;20947347;28;20053;-86
2021/12/20 05:21:34;;;;;;;53.88;21.25;;;;;;;3.03;99.82;101332.31;20939939;28;20080;-85
2021/12/20 05:31:36;;;;;;;51.00;20.25;;;;;;;3.05;99.97;101335.81;20937095;28;20049;-85
2021/12/20 05:41:39;;;;;;;56.25;21.50;;;;;;;3.01;100.00;101349.47;20942653;28;20046;-85
2021/12/20 05:51:40;;;;;;;59.58;22.38;;;;;;;3.01;100.00;101349.47;20949213;28;20099;-86
2021/12/20 06:01:42;;;;;;;60.33;21.70;;;;;;;2.96;100.00;101348.47;20906339;28;20080;-85
2021/12/20 06:11:43;;;;;;;59.20;21.05;;;;;;;2.97;100.00;101350.22;20922385;28;20098;-85
2021/12/20 06:21:45;;;;;;;63.65;23.23;;;;;;;2.88;100.00;101358.59;20911908;28;20136;-85
2021/12/20 06:31:46;;;;;;;75.20;26.88;;;;;;;2.93;100.00;101361.31;20911331;28;20040;-84
2021/12/20 06:41:48;;;;;;;67.82;23.23;;;;;;;2.86;100.00;101370.56;20914019;28;20048;-84
2021/12/20 06:51:49;;;;;;;67.43;23.13;;;;;;;2.77;100.00;101366.00;20906646;28;20045;-85
2021/12/20 07:01:51;;;;;;;65.85;21.60;;;;;;;2.74;100.00;101373.69;20917492;28;20106;-85
2021/12/20 07:11:53;;;;;;;66.22;21.35;;;;;;;2.88;100.00;101384.47;20915469;28;20052;-84
2021/12/20 07:21:55;;;;;;;60.08;21.25;;;;;;;2.86;100.00;101386.09;20896576;28;20135;-85
2021/12/20 07:31:56;;;;;;;68.95;23.25;;;;;;;2.86;100.00;101395.56;20924519;28;20056;-84
2021/12/20 07:41:59;;;;;;;68.97;23.77;;;;;;;2.93;100.00;101407.88;20922883;28;20411;-84
2021/12/20 07:52:02;;;;;;;68.03;24.67;;;;;;;2.98;100.00;101401.13;20918741;28;20101;-86
2021/12/20 08:02:03;;;;;;;63.70;24.75;;;;;;;3.05;100.00;101397.91;20893755;28;20041;-88
2021/12/20 08:12:06;;;;;;;67.45;21.38;;;;;;;2.99;100.00;101400.31;20958799;28;20393;-86
2021/12/20 08:22:07;;;;;;;71.40;25.92;;;;;;;3.06;100.00;101407.41;20969951;28;20062;-86
2021/12/20 08:32:09;;;;;;;64.20;22.23;;;;;;;3.23;100.00;101411.41;20963779;28;20041;-86
2021/12/20 08:42:11;;;;;;;62.42;21.30;;;;;;;3.31;99.60;101422.88;20995787;28;20171;-85
2021/12/20 08:52:13;;;;;;;64.07;21.05;;;;;;;3.39;99.21;101415.31;20973348;28;20487;-87
2021/12/20 09:02:14;;;;;;;56.22;20.10;;;;;;;3.42;98.68;101430.06;20988823;28;20070;-85
2021/12/20 09:12:18;;;;;;;56.55;20.10;;;;;;;3.31;98.73;101442.69;20966923;28;20045;-85
2021/12/20 09:22:25;;;;;;;53.70;18.85;;;;;;;3.41;98.78;101454.22;20896311;28;20487;-86
2021/12/20 09:32:27;;;;;;;49.53;19.20;;;;;;;3.57;98.11;101456.41;20913356;28;20067;-85
2021/12/20 09:42:32;;;;;;;52.55;20.55;;;;;;;3.74;96.21;101455.22;20878706;28;20049;-87
2021/12/20 09:52:33;;;;;;;;;;;;;;;3.79;96.44;101450.16;20935649;28;20041;-86
2021/12/20 10:02:35;;;;;;;51.55;20.50;;;;;;;4.05;95.73;101440.50;20921527;28;19950;-87
2021/12/20 10:12:48;;;;;;;46.63;19.55;;;;;;;3.95;96.12;101459.25;20905592;28;20060;-86
2021/12/20 10:22:52;;;;;;;49.55;19.15;;;;;;;3.95;96.75;101441.97;20898741;28;20045;-86
2021/12/20 10:32:54;;;;;;;45.53;17.77;;;;;;;3.98;96.22;101438.59;20901475;28;20177;-86
2021/12/20 10:42:57;;;;;;;46.95;18.55;;;;;;;4.09;96.50;101443.22;20913288;28;20122;-83
2021/12/20 10:53:21;;;;;;;52.05;20.58;;;;;;;4.05;96.84;101432.75;20903900;28;20045;-83
2021/12/20 11:03:27;;;;;;;60.88;22.98;;;;;;;4.28;95.67;101434.25;20873761;28;20057;-85
2021/12/20 11:13:39;;;;;;;60.42;22.90;;;;;;;4.25;96.63;101422.91;20919847;28;20098;-85
2021/12/20 11:23:40;;;;;;;53.20;21.85;;;;;;;4.43;96.25;101427.69;20909649;28;20041;-84
2021/12/20 11:33:42;;;;;;;57.95;23.08;;;;;;;4.32;96.49;101430.91;20876129;28;20536;-85
2021/12/20 11:43:46;;;;;;;52.38;22.20;;;;;;;4.67;94.53;101417.94;20829728;28;20056;-87
2021/12/20 11:53:47;;;;;;;52.10;22.93;;;;;;;4.55;95.39;101422.81;20868209;28;20049;-86
2021/12/20 12:03:57;;;;;;;49.75;21.23;;;;;;;4.50;94.25;101422.69;20869128;28;20505;-84
2021/12/20 12:14:07;;;;;;;45.50;20.27;;;;;;;4.72;94.39;101416.34;20819366;28;20053;-92
2021/12/20 12:24:13;;;;;;;46.47;19.67;;;;;;;4.70;91.44;101412.84;20827887;28;20495;-90
2021/12/20 12:34:16;;;;;;;39.45;17.95;;;;;;;4.63;92.30;101410.91;20881939;28;20052;-85
2021/12/20 12:44:24;;;;;;;33.17;15.07;;;;;;;4.75;89.67;101416.41;20892590;28;20053;-85
2021/12/20 12:54:32;;;;;;;27.35;12.52;;;;;;;4.73;85.44;101405.09;20894984;28;20453;-86
2021/12/20 13:04:50;;;;;;;27.65;12.65;;;;;;;4.47;86.05;101413.97;20873553;28;20063;-85
2021/12/20 13:15:07;;;;;;;28.73;13.13;;;;;;;4.56;88.10;101396.94;20895847;28;20110;-85
2021/12/20 13:25:08;;;;;;;23.85;11.45;;;;;;;4.63;86.78;101390.16;20918832;28;20132;-84
2021/12/20 13:35:21;;;;;;;26.88;12.10;;;;;;;4.58;87.09;101392.66;20884819;28;20055;-85
2021/12/20 13:45:22;;;;;;;28.23;13.20;;;;;;;4.83;85.70;101372.47;20888453;28;20057;-84
2021/12/20 13:55:24;;;;;;;26.92;13.48;;;;;;;4.53;86.62;101383.88;20896223;28;20088;-84
2021/12/20 14:05:35;;;;;;;30.35;12.68;;;;;;;4.56;86.53;101380.50;20882491;28;20049;-86
2021/12/20 14:15:40;;;;;;;26.88;12.52;;;;;;;4.56;86.51;101380.50;20891680;28;20049;-84
2021/12/20 14:25:45;;;;;;;30.65;13.90;;;;;;;4.44;87.21;101378.47;20870533;28;20049;-85
2021/12/20 14:35:59;;;;;;;;;;;;;;;4.35;87.12;101376.50;20896941;28;20050;-85
2021/12/20 14:46:10;;;;;;;33.67;12.45;;;;;;;4.30;88.03;101374.66;20853446;28;19929;-80
2021/12/20 14:56:12;;;;;;;25.75;13.13;;;;;;;4.19;87.81;101376.97;20845760;28;20055;-83
2021/12/20 15:06:14;;;;;;;28.15;13.57;;;;;;;4.09;88.50;101381.03;20864248;28;20079;-84
2021/12/20 15:16:15;;;;;;;28.98;13.40;;;;;;;3.73;90.92;101385.22;20897497;28;20107;-86
2021/12/20 15:26:17;;;;;;;42.85;21.73;;;;;;;3.33;92.57;101377.19;20850527;28;20049;-85
2021/12/20 15:36:18;;;;;;;35.08;15.77;;;;;;;2.98;93.65;101378.72;20859025;28;20426;-85
2021/12/20 15:46:20;;;;;;;36.85;18.17;;;;;;;2.57;95.55;101377.41;20867885;28;20095;-85
2021/12/20 15:56:22;;;;;;;37.10;17.38;;;;;;;2.33;97.35;101379.19;20872852;28;20545;-84
2021/12/20 16:06:40;;;;;;;33.90;13.57;;;;;;;2.08;97.75;101386.13;20876547;28;20045;-84
2021/12/20 16:16:41;;;;;;;52.63;26.27;;;;;;;1.91;97.94;101387.22;20859561;28;20052;-85
2021/12/20 16:26:48;;;;;;;90.53;36.60;;;;;;;1.70;98.78;101388.22;20861780;28;20049;-85
2021/12/20 16:36:49;;;;;;;81.95;34.17;;;;;;;1.58;99.23;101385.19;20874589;28;20049;-86
2021/12/20 16:46:57;;;;;;;100.50;43.72;;;;;;;1.49;99.98;101387.47;20829572;28;20550;-86
2021/12/20 16:56:59;;;;;;;79.53;36.25;;;;;;;1.54;99.89;101385.94;20873236;28;20049;-89
2021/12/20 17:07:01;;;;;;;47.42;20.33;;;;;;;1.50;99.64;101384.06;20905051;28;20438;-86
2021/12/20 17:17:04;;;;;;;56.53;25.48;;;;;;;1.36;99.51;101377.50;20883425;28;20049;-86
2021/12/20 17:27:09;;;;;;;57.95;26.83;;;;;;;1.25;99.27;101392.59;20859991;28;20491;-86
2021/12/20 17:37:11;;;;;;;;;;;;;;;1.14;99.75;101402.47;20880109;28;20052;-87
2021/12/20 17:47:12;;;;;;;56.20;23.58;;;;;;;0.96;99.66;101400.09;20876788;28;20279;-84
2021/12/20 17:57:14;;;;;;;51.30;23.05;;;;;;;0.71;100.00;101412.78;20852540;28;20045;-84
2021/12/20 18:07:15;;;;;;;46.83;18.98;;;;;;;0.79;98.44;101426.88;20908558;28;20049;-85
2021/12/20 18:17:23;;;;;;;25.60;10.90;;;;;;;0.86;96.40;101409.94;20878034;28;20080;-86
2021/12/20 18:27:31;;;;;;;34.20;12.87;;;;;;;0.83;95.78;101415.88;20888012;28;20112;-87
2021/12/20 18:37:32;;;;;;;28.58;13.55;;;;;;;0.73;96.32;101417.22;20914876;28;20049;-84
2021/12/20 18:47:36;;;;;;;35.33;15.52;;;;;;;0.54;96.61;101422.44;20881507;28;20478;-84
2021/12/20 18:57:38;;;;;;;39.75;15.55;;;;;;;0.34;97.11;101419.03;20887261;28;20449;-84
2021/12/20 19:07:40;;;;;;;34.00;13.43;;;;;;;0.22;97.84;101416.81;20866886;28;20121;-84
2021/12/20 19:17:41;;;;;;;43.53;19.33;;;;;;;0.17;98.47;101433.75;20954303;28;20047;-85
2021/12/20 19:27:43;;;;;;;36.75;14.65;;;;;;;-0.05;99.01;101428.50;20878908;28;20088;-85
2021/12/20 19:37:45;;;;;;;32.05;13.13;;;;;;;-0.26;99.29;101437.03;20892298;28;20095;-84
2021/12/20 19:47:47;;;;;;;42.05;17.25;;;;;;;-0.22;100.00;101430.34;20868243;28;20060;-85
2021/12/20 19:57:49;;;;;;;35.88;13.57;;;;;;;-0.20;99.64;101436.41;20869854;28;20415;-85
2021/12/20 20:07:52;;;;;;;25.75;9.80;;;;;;;-0.44;100.00;101438.78;20821652;28;20122;-84
2021/12/20 20:17:56;;;;;;;38.80;16.00;;;;;;;-0.72;99.58;101420.31;20889254;28;20040;-85
2021/12/20 20:27:59;;;;;;;42.72;18.98;;;;;;;-0.94;99.74;101428.75;20859469;28;20069;-84
2021/12/20 20:38:00;;;;;;;48.38;18.65;;;;;;;-1.06;100.00;101418.75;20850982;28;20094;-84
2021/12/20 20:48:02;;;;;;;104.75;32.88;;;;;;;-1.12;100.00;101423.59;20889639;28;20045;-84
2021/12/20 20:58:04;;;;;;;53.90;23.63;;;;;;;-1.23;100.00;101427.34;20905708;28;20457;-84
2021/12/20 21:08:06;;;;;;;35.85;17.50;;;;;;;-1.34;100.00;101414.88;20898172;28;20045;-84
2021/12/20 21:18:07;;;;;;;48.03;23.73;;;;;;;-1.29;100.00;101404.81;20933865;28;20052;-86
2021/12/20 21:28:09;;;;;;;30.75;14.25;;;;;;;-1.38;100.00;101415.53;20929473;28;20048;-85
2021/12/20 21:38:10;;;;;;;26.75;12.45;;;;;;;-1.21;100.00;101400.03;20862724;28;20052;-84
2021/12/20 21:48:12;;;;;;;52.03;21.75;;;;;;;-1.36;100.00;101395.91;20922822;28;20072;-84
2021/12/20 21:58:14;;;;;;;29.73;11.88;;;;;;;-1.40;100.00;101401.72;20896004;28;20099;-85
2021/12/20 22:08:15;;;;;;;34.10;14.75;;;;;;;-1.51;100.00;101395.19;20887514;28;20102;-84
2021/12/20 22:18:20;;;;;;;31.35;13.05;;;;;;;-1.51;100.00;101392.59;20864649;28;20060;-85
2021/12/20 22:28:22;;;;;;;30.42;12.80;;;;;;;-1.56;100.00;101394.94;20871650;28;20041;-85
2021/12/20 22:38:23;;;;;;;28.13;12.77;;;;;;;-1.72;100.00;101389.00;20857671;28;20041;-84
2021/12/20 22:48:25;;;;;;;37.15;11.65;;;;;;;-1.83;100.00;101399.59;20914266;28;20087;-84
2021/12/20 22:58:27;;;;;;;34.90;12.18;;;;;;;-1.69;100.00;101401.97;20882685;28;20127;-84
2021/12/20 23:08:30;;;;;;;29.95;11.35;;;;;;;-1.69;100.00;101394.28;20856095;28;20414;-84
2021/12/20 23:18:31;;;;;;;32.25;11.45;;;;;;;-1.74;100.00;101391.47;20887118;28;20094;-84
2021/12/20 23:28:33;;;;;;;25.58;10.05;;;;;;;-1.70;100.00;101382.25;20849343;28;20100;-84
2021/12/20 23:38:39;;;;;;;19.02;9.10;;;;;;;-1.67;100.00;101392.69;20865933;28;20053;-85
2021/12/20 23:48:41;;;;;;;23.38;9.70;;;;;;;-1.81;100.00;101400.56;20833779;28;20914;-85
2021/12/20 23:58:42;;;;;;;22.67;8.55;;;;;;;-1.84;100.00;101390.13;20876001;28;20103;-84
